sensor_id;sensor_type;location;lat;lon;timestamp;P1;durP1;ratioP1;P2;durP2;ratioP2
14965;SDS011;7577;45.226;5.798;2023-07-13T00:02:15;5.57;;;3.10;;
14965;SDS011;7577;45.226;5.798;2023-07-13T00:04:46;6.00;;;3.63;;
14965;SDS011;7577;45.226;5.798;2023-07-13T00:07:16;5.37;;;3.27;;
14965;SDS011;7577;45.226;5.798;2023-07-13T00:09:47;4.87;;;3.27;;
14965;SDS011;7577;45.226;5.798;2023-07-13T00:12:24;5.90;;;3.13;;
14965;SDS011;7577;45.226;5.798;2023-07-13T00:14:57;3.67;;;2.77;;
14965;SDS011;7577;45.226;5.798;2023-07-13T00:17:29;4.70;;;2.87;;
14965;SDS011;7577;45.226;5.798;2023-07-13T00:20:08;5.07;;;3.13;;
14965;SDS011;7577;45.226;5.798;2023-07-13T00:22:39;4.43;;;2.97;;
14965;SDS011;7577;45.226;5.798;2023-07-13T00:25:10;3.90;;;2.67;;
14965;SDS011;7577;45.226;5.798;2023-07-13T00:27:41;3.83;;;2.60;;
14965;SDS011;7577;45.226;5.798;2023-07-13T00:30:13;4.50;;;2.60;;
14965;SDS011;7577;45.226;5.798;2023-07-13T00:32:50;4.20;;;2.43;;
14965;SDS011;7577;45.226;5.798;2023-07-13T00:35:20;5.57;;;2.63;;
14965;SDS011;7577;45.226;5.798;2023-07-13T00:37:51;5.10;;;2.53;;
14965;SDS011;7577;45.226;5.798;2023-07-13T00:40:21;3.70;;;2.37;;
14965;SDS011;7577;45.226;5.798;2023-07-13T00:42:52;4.80;;;2.77;;
14965;SDS011;7577;45.226;5.798;2023-07-13T00:48:29;6.07;;;3.37;;
14965;SDS011;7577;45.226;5.798;2023-07-13T00:51:03;5.73;;;3.33;;
14965;SDS011;7577;45.226;5.798;2023-07-13T00:53:33;4.70;;;3.50;;
14965;SDS011;7577;45.226;5.798;2023-07-13T00:56:05;5.10;;;3.67;;
14965;SDS011;7577;45.226;5.798;2023-07-13T00:58:35;5.40;;;3.60;;
14965;SDS011;7577;45.226;5.798;2023-07-13T01:01:06;5.27;;;3.80;;
14965;SDS011;7577;45.226;5.798;2023-07-13T01:03:36;7.33;;;4.00;;
14965;SDS011;7577;45.226;5.798;2023-07-13T01:06:07;5.90;;;3.70;;
14965;SDS011;7577;45.226;5.798;2023-07-13T01:08:39;7.30;;;3.60;;
14965;SDS011;7577;45.226;5.798;2023-07-13T01:11:09;4.87;;;4.00;;
14965;SDS011;7577;45.226;5.798;2023-07-13T01:13:46;4.70;;;4.20;;
14965;SDS011;7577;45.226;5.798;2023-07-13T01:16:19;5.43;;;4.03;;
14965;SDS011;7577;45.226;5.798;2023-07-13T01:18:51;7.03;;;4.07;;
14965;SDS011;7577;45.226;5.798;2023-07-13T01:21:23;6.77;;;4.30;;
14965;SDS011;7577;45.226;5.798;2023-07-13T01:24:01;5.63;;;4.30;;
14965;SDS011;7577;45.226;5.798;2023-07-13T01:26:31;5.47;;;4.10;;
14965;SDS011;7577;45.226;5.798;2023-07-13T01:29:01;7.13;;;4.73;;
14965;SDS011;7577;45.226;5.798;2023-07-13T01:31:43;5.80;;;4.37;;
14965;SDS011;7577;45.226;5.798;2023-07-13T01:34:13;6.83;;;4.70;;
14965;SDS011;7577;45.226;5.798;2023-07-13T01:36:43;5.00;;;4.33;;
14965;SDS011;7577;45.226;5.798;2023-07-13T01:39:13;6.93;;;4.17;;
14965;SDS011;7577;45.226;5.798;2023-07-13T01:41:45;6.33;;;3.63;;
14965;SDS011;7577;45.226;5.798;2023-07-13T01:44:15;3.23;;;2.90;;
14965;SDS011;7577;45.226;5.798;2023-07-13T01:46:45;4.13;;;2.67;;
14965;SDS011;7577;45.226;5.798;2023-07-13T01:49:15;3.90;;;2.60;;
14965;SDS011;7577;45.226;5.798;2023-07-13T01:51:45;2.67;;;2.30;;
14965;SDS011;7577;45.226;5.798;2023-07-13T01:54:15;2.47;;;1.90;;
14965;SDS011;7577;45.226;5.798;2023-07-13T01:56:45;2.80;;;2.00;;
14965;SDS011;7577;45.226;5.798;2023-07-13T01:59:15;3.57;;;2.00;;
14965;SDS011;7577;45.226;5.798;2023-07-13T02:01:45;5.67;;;1.83;;
14965;SDS011;7577;45.226;5.798;2023-07-13T02:04:15;3.60;;;1.60;;
14965;SDS011;7577;45.226;5.798;2023-07-13T02:06:45;3.30;;;1.60;;
14965;SDS011;7577;45.226;5.798;2023-07-13T02:09:15;2.67;;;1.80;;
14965;SDS011;7577;45.226;5.798;2023-07-13T02:11:53;3.77;;;1.87;;
14965;SDS011;7577;45.226;5.798;2023-07-13T02:14:23;2.30;;;1.83;;
14965;SDS011;7577;45.226;5.798;2023-07-13T02:16:53;2.63;;;1.90;;
14965;SDS011;7577;45.226;5.798;2023-07-13T02:19:23;3.77;;;2.00;;
14965;SDS011;7577;45.226;5.798;2023-07-13T02:22:02;2.10;;;1.63;;
14965;SDS011;7577;45.226;5.798;2023-07-13T02:24:32;3.17;;;1.83;;
14965;SDS011;7577;45.226;5.798;2023-07-13T02:27:04;2.50;;;1.70;;
14965;SDS011;7577;45.226;5.798;2023-07-13T02:29:35;3.03;;;1.67;;
14965;SDS011;7577;45.226;5.798;2023-07-13T02:32:06;1.67;;;1.33;;
14965;SDS011;7577;45.226;5.798;2023-07-13T02:34:36;2.80;;;1.40;;
14965;SDS011;7577;45.226;5.798;2023-07-13T02:37:07;3.33;;;1.57;;
14965;SDS011;7577;45.226;5.798;2023-07-13T02:39:37;1.73;;;1.50;;
14965;SDS011;7577;45.226;5.798;2023-07-13T02:42:08;2.53;;;1.60;;
14965;SDS011;7577;45.226;5.798;2023-07-13T02:44:38;2.00;;;1.53;;
14965;SDS011;7577;45.226;5.798;2023-07-13T02:47:16;2.80;;;1.53;;
14965;SDS011;7577;45.226;5.798;2023-07-13T02:49:46;1.57;;;1.40;;
14965;SDS011;7577;45.226;5.798;2023-07-13T02:52:16;1.97;;;1.20;;
14965;SDS011;7577;45.226;5.798;2023-07-13T02:54:46;1.97;;;1.60;;
14965;SDS011;7577;45.226;5.798;2023-07-13T02:57:16;3.73;;;1.30;;
14965;SDS011;7577;45.226;5.798;2023-07-13T02:59:46;1.60;;;1.30;;
14965;SDS011;7577;45.226;5.798;2023-07-13T03:02:17;1.20;;;1.10;;
14965;SDS011;7577;45.226;5.798;2023-07-13T03:04:47;1.63;;;1.00;;
14965;SDS011;7577;45.226;5.798;2023-07-13T03:07:18;2.27;;;1.37;;
14965;SDS011;7577;45.226;5.798;2023-07-13T03:09:48;2.20;;;1.27;;
14965;SDS011;7577;45.226;5.798;2023-07-13T03:12:20;2.13;;;1.20;;
14965;SDS011;7577;45.226;5.798;2023-07-13T03:14:50;1.53;;;1.30;;
14965;SDS011;7577;45.226;5.798;2023-07-13T03:17:21;2.53;;;1.30;;
14965;SDS011;7577;45.226;5.798;2023-07-13T03:19:51;2.23;;;1.50;;
14965;SDS011;7577;45.226;5.798;2023-07-13T03:22:21;3.60;;;1.20;;
14965;SDS011;7577;45.226;5.798;2023-07-13T03:24:54;1.47;;;1.17;;
14965;SDS011;7577;45.226;5.798;2023-07-13T03:27:24;1.63;;;1.13;;
14965;SDS011;7577;45.226;5.798;2023-07-13T03:29:54;1.50;;;1.10;;
14965;SDS011;7577;45.226;5.798;2023-07-13T03:32:24;1.83;;;0.90;;
14965;SDS011;7577;45.226;5.798;2023-07-13T03:34:54;1.57;;;1.17;;
14965;SDS011;7577;45.226;5.798;2023-07-13T03:37:24;2.03;;;1.03;;
14965;SDS011;7577;45.226;5.798;2023-07-13T03:39:55;2.97;;;1.00;;
14965;SDS011;7577;45.226;5.798;2023-07-13T03:42:25;2.33;;;1.10;;
14965;SDS011;7577;45.226;5.798;2023-07-13T03:44:55;2.80;;;1.33;;
14965;SDS011;7577;45.226;5.798;2023-07-13T03:47:25;1.33;;;1.13;;
14965;SDS011;7577;45.226;5.798;2023-07-13T03:49:56;1.47;;;1.20;;
14965;SDS011;7577;45.226;5.798;2023-07-13T03:52:26;1.20;;;1.10;;
14965;SDS011;7577;45.226;5.798;2023-07-13T03:54:56;1.10;;;1.00;;
14965;SDS011;7577;45.226;5.798;2023-07-13T03:57:26;1.50;;;1.20;;
14965;SDS011;7577;45.226;5.798;2023-07-13T03:59:56;1.83;;;1.10;;
14965;SDS011;7577;45.226;5.798;2023-07-13T04:02:26;2.17;;;1.13;;
14965;SDS011;7577;45.226;5.798;2023-07-13T04:04:57;1.83;;;1.20;;
14965;SDS011;7577;45.226;5.798;2023-07-13T04:07:27;1.57;;;1.10;;
14965;SDS011;7577;45.226;5.798;2023-07-13T04:09:56;1.30;;;1.20;;
14965;SDS011;7577;45.226;5.798;2023-07-13T04:12:26;2.50;;;1.20;;
14965;SDS011;7577;45.226;5.798;2023-07-13T04:15:09;1.10;;;1.00;;
14965;SDS011;7577;45.226;5.798;2023-07-13T04:17:39;1.47;;;1.00;;
14965;SDS011;7577;45.226;5.798;2023-07-13T04:20:17;2.00;;;1.03;;
14965;SDS011;7577;45.226;5.798;2023-07-13T04:22:47;1.20;;;1.10;;
14965;SDS011;7577;45.226;5.798;2023-07-13T04:25:18;1.00;;;1.00;;
14965;SDS011;7577;45.226;5.798;2023-07-13T04:27:55;1.90;;;0.90;;
14965;SDS011;7577;45.226;5.798;2023-07-13T04:30:25;1.90;;;0.80;;
14965;SDS011;7577;45.226;5.798;2023-07-13T04:32:55;1.73;;;0.70;;
14965;SDS011;7577;45.226;5.798;2023-07-13T04:35:25;2.20;;;0.93;;
14965;SDS011;7577;45.226;5.798;2023-07-13T04:37:55;1.30;;;0.70;;
14965;SDS011;7577;45.226;5.798;2023-07-13T04:40:26;3.27;;;0.87;;
14965;SDS011;7577;45.226;5.798;2023-07-13T04:42:57;0.90;;;0.67;;
14965;SDS011;7577;45.226;5.798;2023-07-13T04:45:27;1.67;;;0.90;;
14965;SDS011;7577;45.226;5.798;2023-07-13T04:47:58;1.67;;;0.77;;
14965;SDS011;7577;45.226;5.798;2023-07-13T04:50:28;1.50;;;0.93;;
14965;SDS011;7577;45.226;5.798;2023-07-13T04:52:58;1.30;;;0.60;;
14965;SDS011;7577;45.226;5.798;2023-07-13T04:55:28;1.60;;;0.80;;
14965;SDS011;7577;45.226;5.798;2023-07-13T04:57:58;1.40;;;0.90;;
14965;SDS011;7577;45.226;5.798;2023-07-13T05:00:30;1.37;;;0.70;;
14965;SDS011;7577;45.226;5.798;2023-07-13T05:03:00;1.27;;;0.60;;
14965;SDS011;7577;45.226;5.798;2023-07-13T05:05:31;3.07;;;0.83;;
14965;SDS011;7577;45.226;5.798;2023-07-13T05:08:01;2.83;;;0.90;;
14965;SDS011;7577;45.226;5.798;2023-07-13T05:10:32;1.80;;;0.80;;
14965;SDS011;7577;45.226;5.798;2023-07-13T05:13:03;1.03;;;0.90;;
14965;SDS011;7577;45.226;5.798;2023-07-13T05:15:33;3.93;;;0.80;;
14965;SDS011;7577;45.226;5.798;2023-07-13T05:18:11;2.10;;;0.70;;
14965;SDS011;7577;45.226;5.798;2023-07-13T05:20:41;1.57;;;0.80;;
14965;SDS011;7577;45.226;5.798;2023-07-13T05:23:18;1.93;;;0.80;;
14965;SDS011;7577;45.226;5.798;2023-07-13T05:25:48;2.43;;;0.80;;
14965;SDS011;7577;45.226;5.798;2023-07-13T05:28:26;1.80;;;0.80;;
14965;SDS011;7577;45.226;5.798;2023-07-13T05:30:58;0.90;;;0.60;;
14965;SDS011;7577;45.226;5.798;2023-07-13T05:33:29;1.30;;;0.90;;
14965;SDS011;7577;45.226;5.798;2023-07-13T05:36:00;2.40;;;0.80;;
14965;SDS011;7577;45.226;5.798;2023-07-13T05:38:29;0.90;;;0.80;;
14965;SDS011;7577;45.226;5.798;2023-07-13T05:40:59;2.13;;;0.90;;
14965;SDS011;7577;45.226;5.798;2023-07-13T05:43:30;1.77;;;0.77;;
14965;SDS011;7577;45.226;5.798;2023-07-13T05:46:00;2.33;;;0.80;;
14965;SDS011;7577;45.226;5.798;2023-07-13T05:48:31;2.33;;;0.97;;
14965;SDS011;7577;45.226;5.798;2023-07-13T05:51:08;1.17;;;0.63;;
14965;SDS011;7577;45.226;5.798;2023-07-13T05:53:38;2.00;;;0.80;;
14965;SDS011;7577;45.226;5.798;2023-07-13T05:56:08;1.70;;;0.60;;
14965;SDS011;7577;45.226;5.798;2023-07-13T05:58:38;0.83;;;0.70;;
14965;SDS011;7577;45.226;5.798;2023-07-13T06:01:10;0.80;;;0.70;;
14965;SDS011;7577;45.226;5.798;2023-07-13T06:03:41;2.57;;;0.80;;
14965;SDS011;7577;45.226;5.798;2023-07-13T06:06:11;2.30;;;1.00;;
14965;SDS011;7577;45.226;5.798;2023-07-13T06:08:42;1.33;;;0.90;;
14965;SDS011;7577;45.226;5.798;2023-07-13T06:11:13;1.93;;;0.80;;
14965;SDS011;7577;45.226;5.798;2023-07-13T06:13:45;1.87;;;0.83;;
14965;SDS011;7577;45.226;5.798;2023-07-13T06:16:15;2.03;;;1.03;;
14965;SDS011;7577;45.226;5.798;2023-07-13T06:18:53;0.80;;;0.80;;
14965;SDS011;7577;45.226;5.798;2023-07-13T06:21:23;1.13;;;0.57;;
14965;SDS011;7577;45.226;5.798;2023-07-13T06:23:53;2.07;;;1.10;;
14965;SDS011;7577;45.226;5.798;2023-07-13T06:26:31;1.63;;;0.60;;
14965;SDS011;7577;45.226;5.798;2023-07-13T06:29:00;1.43;;;0.80;;
14965;SDS011;7577;45.226;5.798;2023-07-13T06:31:31;1.00;;;0.70;;
14965;SDS011;7577;45.226;5.798;2023-07-13T06:34:01;1.30;;;0.60;;
14965;SDS011;7577;45.226;5.798;2023-07-13T06:36:30;1.47;;;0.90;;
14965;SDS011;7577;45.226;5.798;2023-07-13T06:39:00;1.33;;;0.90;;
14965;SDS011;7577;45.226;5.798;2023-07-13T06:41:30;1.43;;;0.70;;
14965;SDS011;7577;45.226;5.798;2023-07-13T06:44:00;0.87;;;0.80;;
14965;SDS011;7577;45.226;5.798;2023-07-13T06:46:31;1.60;;;0.87;;
14965;SDS011;7577;45.226;5.798;2023-07-13T06:49:01;2.43;;;0.60;;
14965;SDS011;7577;45.226;5.798;2023-07-13T06:51:31;1.07;;;0.80;;
14965;SDS011;7577;45.226;5.798;2023-07-13T06:54:02;1.73;;;1.00;;
14965;SDS011;7577;45.226;5.798;2023-07-13T06:56:40;1.43;;;0.60;;
14965;SDS011;7577;45.226;5.798;2023-07-13T06:59:11;1.70;;;0.83;;
14965;SDS011;7577;45.226;5.798;2023-07-13T07:01:40;1.13;;;0.70;;
14965;SDS011;7577;45.226;5.798;2023-07-13T07:04:10;2.27;;;0.70;;
14965;SDS011;7577;45.226;5.798;2023-07-13T07:06:40;1.53;;;0.87;;
14965;SDS011;7577;45.226;5.798;2023-07-13T07:09:10;1.27;;;0.70;;
14965;SDS011;7577;45.226;5.798;2023-07-13T07:11:40;1.03;;;0.80;;
14965;SDS011;7577;45.226;5.798;2023-07-13T07:14:10;1.80;;;0.90;;
14965;SDS011;7577;45.226;5.798;2023-07-13T07:16:41;0.70;;;0.60;;
14965;SDS011;7577;45.226;5.798;2023-07-13T07:19:11;1.37;;;0.80;;
14965;SDS011;7577;45.226;5.798;2023-07-13T07:21:48;1.20;;;0.70;;
14965;SDS011;7577;45.226;5.798;2023-07-13T07:24:18;0.80;;;0.70;;
14965;SDS011;7577;45.226;5.798;2023-07-13T07:26:56;1.10;;;0.83;;
14965;SDS011;7577;45.226;5.798;2023-07-13T07:29:27;1.17;;;0.67;;
14965;SDS011;7577;45.226;5.798;2023-07-13T07:31:57;1.20;;;0.70;;
14965;SDS011;7577;45.226;5.798;2023-07-13T07:34:28;1.50;;;0.90;;
14965;SDS011;7577;45.226;5.798;2023-07-13T07:36:59;1.47;;;0.97;;
14965;SDS011;7577;45.226;5.798;2023-07-13T07:39:30;1.40;;;0.70;;
14965;SDS011;7577;45.226;5.798;2023-07-13T07:42:00;1.13;;;0.80;;
14965;SDS011;7577;45.226;5.798;2023-07-13T07:44:31;1.80;;;0.80;;
14965;SDS011;7577;45.226;5.798;2023-07-13T07:47:02;2.10;;;0.90;;
14965;SDS011;7577;45.226;5.798;2023-07-13T07:49:33;3.10;;;0.90;;
14965;SDS011;7577;45.226;5.798;2023-07-13T07:52:06;2.03;;;0.60;;
14965;SDS011;7577;45.226;5.798;2023-07-13T07:54:44;2.73;;;0.80;;
14965;SDS011;7577;45.226;5.798;2023-07-13T07:57:15;1.30;;;0.83;;
14965;SDS011;7577;45.226;5.798;2023-07-13T07:59:52;2.90;;;0.80;;
14965;SDS011;7577;45.226;5.798;2023-07-13T08:02:22;2.13;;;1.00;;
14965;SDS011;7577;45.226;5.798;2023-07-13T08:04:54;3.17;;;0.80;;
14965;SDS011;7577;45.226;5.798;2023-07-13T08:07:24;2.23;;;1.00;;
14965;SDS011;7577;45.226;5.798;2023-07-13T08:09:54;1.63;;;0.73;;
14965;SDS011;7577;45.226;5.798;2023-07-13T08:12:24;1.53;;;0.90;;
14965;SDS011;7577;45.226;5.798;2023-07-13T08:14:54;0.93;;;0.73;;
14965;SDS011;7577;45.226;5.798;2023-07-13T08:17:25;2.20;;;0.80;;
14965;SDS011;7577;45.226;5.798;2023-07-13T08:19:55;1.20;;;0.63;;
14965;SDS011;7577;45.226;5.798;2023-07-13T08:22:25;3.70;;;1.00;;
14965;SDS011;7577;45.226;5.798;2023-07-13T08:25:05;1.10;;;0.90;;
14965;SDS011;7577;45.226;5.798;2023-07-13T08:27:36;1.83;;;0.90;;
14965;SDS011;7577;45.226;5.798;2023-07-13T08:30:06;1.53;;;0.80;;
14965;SDS011;7577;45.226;5.798;2023-07-13T08:32:44;1.27;;;0.90;;
14965;SDS011;7577;45.226;5.798;2023-07-13T08:35:15;1.87;;;0.90;;
14965;SDS011;7577;45.226;5.798;2023-07-13T08:37:45;1.63;;;0.80;;
14965;SDS011;7577;45.226;5.798;2023-07-13T08:40:23;1.47;;;0.83;;
14965;SDS011;7577;45.226;5.798;2023-07-13T08:42:54;1.23;;;0.73;;
14965;SDS011;7577;45.226;5.798;2023-07-13T08:45:28;1.83;;;0.90;;
14965;SDS011;7577;45.226;5.798;2023-07-13T08:48:01;2.17;;;1.00;;
14965;SDS011;7577;45.226;5.798;2023-07-13T08:50:34;2.00;;;0.90;;
14965;SDS011;7577;45.226;5.798;2023-07-13T08:53:07;2.00;;;0.87;;
14965;SDS011;7577;45.226;5.798;2023-07-13T08:55:40;1.57;;;0.90;;
14965;SDS011;7577;45.226;5.798;2023-07-13T08:58:12;1.20;;;0.80;;
14965;SDS011;7577;45.226;5.798;2023-07-13T09:00:46;1.97;;;0.80;;
14965;SDS011;7577;45.226;5.798;2023-07-13T09:03:24;0.77;;;0.77;;
14965;SDS011;7577;45.226;5.798;2023-07-13T09:05:58;1.13;;;0.83;;
14965;SDS011;7577;45.226;5.798;2023-07-13T09:08:37;1.10;;;0.77;;
14965;SDS011;7577;45.226;5.798;2023-07-13T09:11:16;1.40;;;0.97;;
14965;SDS011;7577;45.226;5.798;2023-07-13T09:13:52;1.60;;;0.97;;
14965;SDS011;7577;45.226;5.798;2023-07-13T09:16:33;2.00;;;1.10;;
14965;SDS011;7577;45.226;5.798;2023-07-13T09:19:06;1.33;;;1.00;;
14965;SDS011;7577;45.226;5.798;2023-07-13T09:21:41;2.43;;;0.80;;
14965;SDS011;7577;45.226;5.798;2023-07-13T09:24:29;1.70;;;0.97;;
14965;SDS011;7577;45.226;5.798;2023-07-13T09:27:08;2.90;;;0.93;;
14965;SDS011;7577;45.226;5.798;2023-07-13T09:29:46;2.47;;;0.93;;
14965;SDS011;7577;45.226;5.798;2023-07-13T09:32:18;1.17;;;0.80;;
14965;SDS011;7577;45.226;5.798;2023-07-13T09:34:52;1.00;;;0.80;;
14965;SDS011;7577;45.226;5.798;2023-07-13T09:37:23;1.53;;;0.90;;
14965;SDS011;7577;45.226;5.798;2023-07-13T09:39:58;2.03;;;1.00;;
14965;SDS011;7577;45.226;5.798;2023-07-13T09:42:32;1.83;;;1.10;;
14965;SDS011;7577;45.226;5.798;2023-07-13T09:45:02;3.50;;;1.07;;
14965;SDS011;7577;45.226;5.798;2023-07-13T09:47:37;2.73;;;1.10;;
14965;SDS011;7577;45.226;5.798;2023-07-13T09:50:15;1.43;;;0.80;;
14965;SDS011;7577;45.226;5.798;2023-07-13T09:52:46;1.93;;;1.00;;
14965;SDS011;7577;45.226;5.798;2023-07-13T09:55:26;2.23;;;1.00;;
14965;SDS011;7577;45.226;5.798;2023-07-13T09:58:03;1.60;;;1.10;;
14965;SDS011;7577;45.226;5.798;2023-07-13T10:00:34;2.90;;;1.00;;
14965;SDS011;7577;45.226;5.798;2023-07-13T10:03:06;2.90;;;0.90;;
14965;SDS011;7577;45.226;5.798;2023-07-13T10:05:45;2.13;;;0.97;;
14965;SDS011;7577;45.226;5.798;2023-07-13T10:08:18;1.53;;;0.90;;
14965;SDS011;7577;45.226;5.798;2023-07-13T10:10:53;1.40;;;0.97;;
14965;SDS011;7577;45.226;5.798;2023-07-13T10:13:27;0.97;;;0.63;;
14965;SDS011;7577;45.226;5.798;2023-07-13T10:16:01;3.00;;;1.17;;
14965;SDS011;7577;45.226;5.798;2023-07-13T10:18:42;1.27;;;0.80;;
14965;SDS011;7577;45.226;5.798;2023-07-13T10:21:15;1.70;;;0.93;;
14965;SDS011;7577;45.226;5.798;2023-07-13T10:23:48;3.83;;;1.00;;
14965;SDS011;7577;45.226;5.798;2023-07-13T10:26:22;1.57;;;1.20;;
14965;SDS011;7577;45.226;5.798;2023-07-13T10:28:55;1.83;;;1.03;;
14965;SDS011;7577;45.226;5.798;2023-07-13T10:31:27;1.43;;;0.80;;
14965;SDS011;7577;45.226;5.798;2023-07-13T10:33:58;2.10;;;1.00;;
14965;SDS011;7577;45.226;5.798;2023-07-13T10:36:30;1.80;;;0.80;;
14965;SDS011;7577;45.226;5.798;2023-07-13T10:39:04;3.13;;;1.20;;
14965;SDS011;7577;45.226;5.798;2023-07-13T10:41:35;1.93;;;1.00;;
14965;SDS011;7577;45.226;5.798;2023-07-13T10:44:12;3.23;;;1.13;;
14965;SDS011;7577;45.226;5.798;2023-07-13T10:46:44;2.00;;;1.10;;
14965;SDS011;7577;45.226;5.798;2023-07-13T10:49:15;4.13;;;1.10;;
14965;SDS011;7577;45.226;5.798;2023-07-13T10:51:46;2.67;;;0.80;;
14965;SDS011;7577;45.226;5.798;2023-07-13T10:54:19;1.73;;;0.97;;
14965;SDS011;7577;45.226;5.798;2023-07-13T10:56:52;3.10;;;0.83;;
14965;SDS011;7577;45.226;5.798;2023-07-13T10:59:24;1.87;;;0.97;;
14965;SDS011;7577;45.226;5.798;2023-07-13T11:01:58;1.70;;;1.00;;
14965;SDS011;7577;45.226;5.798;2023-07-13T11:04:39;1.03;;;0.87;;
14965;SDS011;7577;45.226;5.798;2023-07-13T11:07:20;1.73;;;0.97;;
14965;SDS011;7577;45.226;5.798;2023-07-13T11:09:52;3.63;;;1.20;;
14965;SDS011;7577;45.226;5.798;2023-07-13T11:12:28;3.53;;;1.17;;
14965;SDS011;7577;45.226;5.798;2023-07-13T11:15:26;1.27;;;1.00;;
14965;SDS011;7577;45.226;5.798;2023-07-13T11:18:03;3.07;;;1.20;;
14965;SDS011;7577;45.226;5.798;2023-07-13T11:20:36;1.77;;;0.90;;
14965;SDS011;7577;45.226;5.798;2023-07-13T11:23:09;4.47;;;1.10;;
14965;SDS011;7577;45.226;5.798;2023-07-13T11:26:16;1.73;;;1.00;;
14965;SDS011;7577;45.226;5.798;2023-07-13T11:29:01;3.77;;;1.00;;
14965;SDS011;7577;45.226;5.798;2023-07-13T11:31:37;1.37;;;1.07;;
14965;SDS011;7577;45.226;5.798;2023-07-13T11:34:10;2.70;;;1.20;;
14965;SDS011;7577;45.226;5.798;2023-07-13T11:36:43;3.53;;;1.43;;
14965;SDS011;7577;45.226;5.798;2023-07-13T11:39:17;2.23;;;1.00;;
14965;SDS011;7577;45.226;5.798;2023-07-13T11:41:50;6.33;;;1.10;;
14965;SDS011;7577;45.226;5.798;2023-07-13T11:44:24;2.77;;;1.10;;
14965;SDS011;7577;45.226;5.798;2023-07-13T11:46:57;2.00;;;1.00;;
14965;SDS011;7577;45.226;5.798;2023-07-13T11:49:40;3.27;;;1.03;;
14965;SDS011;7577;45.226;5.798;2023-07-13T11:52:11;1.93;;;1.20;;
14965;SDS011;7577;45.226;5.798;2023-07-13T11:54:46;3.27;;;1.23;;
14965;SDS011;7577;45.226;5.798;2023-07-13T11:57:21;1.57;;;1.03;;
14965;SDS011;7577;45.226;5.798;2023-07-13T11:59:54;2.40;;;1.00;;
14965;SDS011;7577;45.226;5.798;2023-07-13T12:02:27;4.10;;;1.33;;
14965;SDS011;7577;45.226;5.798;2023-07-13T12:04:59;2.10;;;1.10;;
14965;SDS011;7577;45.226;5.798;2023-07-13T12:07:32;2.10;;;1.20;;
14965;SDS011;7577;45.226;5.798;2023-07-13T12:10:13;2.03;;;1.03;;
14965;SDS011;7577;45.226;5.798;2023-07-13T12:12:48;2.33;;;1.10;;
14965;SDS011;7577;45.226;5.798;2023-07-13T12:15:20;2.33;;;1.10;;
14965;SDS011;7577;45.226;5.798;2023-07-13T12:17:51;2.30;;;1.00;;
14965;SDS011;7577;45.226;5.798;2023-07-13T12:20:30;1.60;;;1.00;;
14965;SDS011;7577;45.226;5.798;2023-07-13T12:23:04;1.23;;;0.77;;
14965;SDS011;7577;45.226;5.798;2023-07-13T12:25:34;4.90;;;1.20;;
14965;SDS011;7577;45.226;5.798;2023-07-13T12:28:20;3.00;;;1.20;;
14965;SDS011;7577;45.226;5.798;2023-07-13T12:30:51;2.83;;;1.37;;
14965;SDS011;7577;45.226;5.798;2023-07-13T12:33:24;2.50;;;0.97;;
14965;SDS011;7577;45.226;5.798;2023-07-13T12:35:57;2.17;;;1.03;;
14965;SDS011;7577;45.226;5.798;2023-07-13T12:38:30;1.53;;;1.10;;
14965;SDS011;7577;45.226;5.798;2023-07-13T12:41:01;2.60;;;0.90;;
14965;SDS011;7577;45.226;5.798;2023-07-13T12:43:33;3.33;;;1.27;;
14965;SDS011;7577;45.226;5.798;2023-07-13T12:46:16;3.93;;;1.23;;
14965;SDS011;7577;45.226;5.798;2023-07-13T12:48:49;3.13;;;1.33;;
14965;SDS011;7577;45.226;5.798;2023-07-13T12:51:22;3.90;;;1.27;;
14965;SDS011;7577;45.226;5.798;2023-07-13T12:54:06;3.23;;;1.20;;
14965;SDS011;7577;45.226;5.798;2023-07-13T12:56:36;1.80;;;1.00;;
14965;SDS011;7577;45.226;5.798;2023-07-13T12:59:08;3.10;;;1.27;;
14965;SDS011;7577;45.226;5.798;2023-07-13T13:01:42;3.03;;;1.20;;
14965;SDS011;7577;45.226;5.798;2023-07-13T13:04:14;3.63;;;1.30;;
14965;SDS011;7577;45.226;5.798;2023-07-13T13:06:47;2.10;;;1.03;;
14965;SDS011;7577;45.226;5.798;2023-07-13T13:09:18;2.17;;;0.97;;
14965;SDS011;7577;45.226;5.798;2023-07-13T13:11:48;2.23;;;1.00;;
14965;SDS011;7577;45.226;5.798;2023-07-13T13:14:19;2.77;;;1.10;;
14965;SDS011;7577;45.226;5.798;2023-07-13T13:16:51;2.33;;;1.10;;
14965;SDS011;7577;45.226;5.798;2023-07-13T13:19:28;3.30;;;1.20;;
14965;SDS011;7577;45.226;5.798;2023-07-13T13:21:58;1.27;;;0.90;;
14965;SDS011;7577;45.226;5.798;2023-07-13T13:24:29;2.73;;;1.20;;
14965;SDS011;7577;45.226;5.798;2023-07-13T13:27:09;3.47;;;1.20;;
14965;SDS011;7577;45.226;5.798;2023-07-13T13:29:44;2.07;;;1.17;;
14965;SDS011;7577;45.226;5.798;2023-07-13T13:32:16;1.97;;;1.10;;
14965;SDS011;7577;45.226;5.798;2023-07-13T13:34:53;2.83;;;1.00;;
14965;SDS011;7577;45.226;5.798;2023-07-13T13:37:23;4.07;;;1.07;;
14965;SDS011;7577;45.226;5.798;2023-07-13T13:39:54;2.40;;;1.10;;
14965;SDS011;7577;45.226;5.798;2023-07-13T13:42:24;2.50;;;0.90;;
14965;SDS011;7577;45.226;5.798;2023-07-13T13:44:56;1.30;;;0.90;;
14965;SDS011;7577;45.226;5.798;2023-07-13T13:47:30;3.57;;;1.17;;
14965;SDS011;7577;45.226;5.798;2023-07-13T13:50:08;2.23;;;1.00;;
14965;SDS011;7577;45.226;5.798;2023-07-13T13:52:42;1.90;;;0.90;;
14965;SDS011;7577;45.226;5.798;2023-07-13T13:55:13;3.27;;;1.70;;
14965;SDS011;7577;45.226;5.798;2023-07-13T13:57:50;3.73;;;1.80;;
14965;SDS011;7577;45.226;5.798;2023-07-13T14:00:21;5.20;;;1.40;;
14965;SDS011;7577;45.226;5.798;2023-07-13T14:02:52;4.80;;;1.50;;
14965;SDS011;7577;45.226;5.798;2023-07-13T14:05:30;2.67;;;1.27;;
14965;SDS011;7577;45.226;5.798;2023-07-13T14:08:00;3.63;;;1.30;;
14965;SDS011;7577;45.226;5.798;2023-07-13T14:10:30;3.30;;;1.13;;
14965;SDS011;7577;45.226;5.798;2023-07-13T14:13:01;6.67;;;1.30;;
14965;SDS011;7577;45.226;5.798;2023-07-13T14:15:32;4.03;;;1.27;;
14965;SDS011;7577;45.226;5.798;2023-07-13T14:18:10;6.57;;;1.50;;
14965;SDS011;7577;45.226;5.798;2023-07-13T14:20:42;4.90;;;1.50;;
14965;SDS011;7577;45.226;5.798;2023-07-13T14:23:13;3.50;;;1.50;;
14965;SDS011;7577;45.226;5.798;2023-07-13T14:25:51;5.00;;;1.70;;
14965;SDS011;7577;45.226;5.798;2023-07-13T14:28:22;4.43;;;1.97;;
14965;SDS011;7577;45.226;5.798;2023-07-13T14:31:00;2.53;;;1.57;;
14965;SDS011;7577;45.226;5.798;2023-07-13T14:33:30;3.60;;;1.70;;
14965;SDS011;7577;45.226;5.798;2023-07-13T14:36:00;4.30;;;1.80;;
14965;SDS011;7577;45.226;5.798;2023-07-13T14:38:31;4.40;;;2.13;;
14965;SDS011;7577;45.226;5.798;2023-07-13T14:41:01;4.23;;;1.73;;
14965;SDS011;7577;45.226;5.798;2023-07-13T14:43:32;3.40;;;1.47;;
14965;SDS011;7577;45.226;5.798;2023-07-13T14:46:02;3.63;;;1.70;;
14965;SDS011;7577;45.226;5.798;2023-07-13T14:48:32;5.73;;;2.53;;
14965;SDS011;7577;45.226;5.798;2023-07-13T14:51:03;6.43;;;1.90;;
14965;SDS011;7577;45.226;5.798;2023-07-13T14:53:40;15.53;;;3.37;;
14965;SDS011;7577;45.226;5.798;2023-07-13T14:56:11;11.60;;;2.70;;
14965;SDS011;7577;45.226;5.798;2023-07-13T14:58:44;5.23;;;2.33;;
14965;SDS011;7577;45.226;5.798;2023-07-13T15:01:21;6.30;;;2.30;;
14965;SDS011;7577;45.226;5.798;2023-07-13T15:03:53;4.93;;;2.03;;
14965;SDS011;7577;45.226;5.798;2023-07-13T15:06:23;8.07;;;2.97;;
14965;SDS011;7577;45.226;5.798;2023-07-13T15:08:53;9.20;;;2.40;;
14965;SDS011;7577;45.226;5.798;2023-07-13T15:11:23;9.53;;;2.53;;
14965;SDS011;7577;45.226;5.798;2023-07-13T15:13:53;5.90;;;2.40;;
14965;SDS011;7577;45.226;5.798;2023-07-13T15:16:24;9.77;;;2.70;;
14965;SDS011;7577;45.226;5.798;2023-07-13T15:19:02;5.50;;;2.53;;
14965;SDS011;7577;45.226;5.798;2023-07-13T15:21:32;6.73;;;2.70;;
14965;SDS011;7577;45.226;5.798;2023-07-13T15:24:04;4.83;;;2.07;;
14965;SDS011;7577;45.226;5.798;2023-07-13T15:26:37;5.43;;;2.13;;
14965;SDS011;7577;45.226;5.798;2023-07-13T15:29:07;7.93;;;2.60;;
14965;SDS011;7577;45.226;5.798;2023-07-13T15:31:37;6.87;;;2.43;;
14965;SDS011;7577;45.226;5.798;2023-07-13T15:34:11;8.30;;;2.40;;
14965;SDS011;7577;45.226;5.798;2023-07-13T15:36:43;7.63;;;2.07;;